Time;durP1;ratioP1;P1;durP2;ratioP2;P2;SDS_P1;SDS_P2;PMS_P1;PMS_P2;Temp;Humidity;BMP_temperature;BMP_pressure;BME280_temperature;BME280_humidity;BME280_pressure;Samples;Min_cycle;Max_cycle;Signal;HPM_P1;HPM_P2
2023/10/29 00:00:28;;;;;;;0.00;0.00;;;;;;;12.03;100.00;98824.94;5113141;27;20020;-40
2023/10/29 00:02:54;;;;;;;0.00;0.00;;;;;;;12.10;100.00;98823.94;5111796;28;20046;-41
2023/10/29 00:05:20;;;;;;;0.00;0.00;;;;;;;12.15;100.00;98832.13;5108447;27;20458;-41
2023/10/29 00:07:45;;;;;;;0.00;0.00;;;;;;;12.22;100.00;98825.53;5112825;28;20024;-40
2023/10/29 00:10:11;;;;;;;0.00;0.00;;;;;;;12.29;100.00;98801.91;5115318;28;20062;-40
2023/10/29 00:12:36;;;;;;;0.00;0.00;;;;;;;12.36;100.00;98801.78;5101399;28;20034;-40
2023/10/29 00:15:03;;;;;;;0.00;0.00;;;;;;;12.41;100.00;98804.56;5110820;27;20031;-39
2023/10/29 00:17:28;;;;;;;0.00;0.00;;;;;;;12.50;100.00;98789.59;5116739;27;20036;-40
2023/10/29 00:19:54;;;;;;;0.00;0.00;;;;;;;12.55;100.00;98815.03;5132496;27;20019;-40
2023/10/29 00:22:19;;;;;;;0.00;0.00;;;;;;;12.61;100.00;98787.06;5113382;27;20043;-41
2023/10/29 00:24:44;;;;;;;0.00;0.00;;;;;;;12.70;100.00;98785.59;5111427;27;20055;-40
2023/10/29 00:27:09;;;;;;;0.00;0.00;;;;;;;12.71;100.00;98777.22;5111835;28;20026;-41
2023/10/29 00:29:35;;;;;;;0.00;0.00;;;;;;;12.79;100.00;98772.50;5109007;27;20023;-40
2023/10/29 00:32:01;;;;;;;0.00;0.00;;;;;;;12.81;100.00;98765.78;5134554;27;20034;-40
2023/10/29 00:34:26;;;;;;;0.00;0.00;;;;;;;12.84;100.00;98761.78;5135253;27;20441;-41
2023/10/29 00:36:51;;;;;;;0.00;0.00;;;;;;;12.83;100.00;98750.16;5120568;27;20035;-42
2023/10/29 00:39:17;;;;;;;0.00;0.00;;;;;;;12.85;100.00;98756.13;5113139;28;20028;-41
2023/10/29 00:41:43;;;;;;;0.00;0.00;;;;;;;12.87;100.00;98753.97;5111615;28;20040;-38
2023/10/29 00:44:08;;;;;;;0.00;0.00;;;;;;;12.90;100.00;98756.22;5110392;28;20110;-40
2023/10/29 00:46:34;;;;;;;0.00;0.00;;;;;;;12.92;100.00;98731.66;5111055;28;20055;-41
2023/10/29 00:48:59;;;;;;;0.00;0.00;;;;;;;12.90;100.00;98744.56;5110667;28;20023;-40
2023/10/29 00:51:25;;;;;;;0.00;0.00;;;;;;;12.88;100.00;98717.84;5110994;28;20462;-41
2023/10/29 00:53:51;;;;;;;0.00;0.00;;;;;;;12.97;100.00;98737.13;5111032;27;20057;-40
2023/10/29 00:56:18;;;;;;;0.00;0.00;;;;;;;12.98;100.00;98727.97;5109647;28;20025;-40
2023/10/29 00:58:44;;;;;;;0.00;0.00;;;;;;;12.94;100.00;98740.31;5110315;28;20028;-40
2023/10/29 01:01:10;;;;;;;0.00;0.00;;;;;;;12.94;100.00;98727.63;5110308;28;20035;-40
2023/10/29 01:03:35;;;;;;;0.00;0.00;;;;;;;13.01;100.00;98732.06;5111580;27;20065;-40
2023/10/29 01:06:00;;;;;;;0.00;0.00;;;;;;;13.00;100.00;98716.91;5115660;27;20020;-39
2023/10/29 01:08:26;;;;;;;0.00;0.00;;;;;;;12.99;100.00;98717.97;5126476;27;20027;-40
2023/10/29 01:10:51;;;;;;;0.00;0.00;;;;;;;13.02;100.00;98717.47;5110247;28;20023;-39
2023/10/29 01:13:17;;;;;;;0.00;0.00;;;;;;;13.06;100.00;98711.34;5110246;28;20448;-39
2023/10/29 01:15:42;;;;;;;0.00;0.00;;;;;;;12.95;100.00;98729.28;5110415;28;20032;-41
2023/10/29 01:18:08;;;;;;;0.00;0.00;;;;;;;12.84;100.00;98705.91;5110209;28;20452;-44
2023/10/29 01:20:33;;;;;;;0.00;0.00;;;;;;;12.76;100.00;98705.50;5110205;28;20144;-43
2023/10/29 01:22:58;;;;;;;0.00;0.00;;;;;;;12.69;100.00;98697.56;5113522;28;20093;-43
2023/10/29 01:25:24;;;;;;;0.00;0.00;;;;;;;12.68;100.00;98690.56;5074732;28;20032;-43
2023/10/29 01:27:49;;;;;;;0.00;0.00;;;;;;;12.70;100.00;98691.94;5110009;28;20094;-43
2023/10/29 01:30:14;;;;;;;0.00;0.00;;;;;;;12.72;100.00;98694.41;5110227;28;20467;-40
2023/10/29 01:32:40;;;;;;;0.00;0.00;;;;;;;12.72;100.00;98687.13;5110121;28;20435;-40
2023/10/29 01:35:05;;;;;;;0.00;0.00;;;;;;;12.73;100.00;98693.34;5109382;28;20470;-44
2023/10/29 01:37:31;;;;;;;0.00;0.00;;;;;;;12.73;100.00;98677.94;5110285;28;20027;-44
2023/10/29 01:39:57;;;;;;;0.00;0.00;;;;;;;12.71;100.00;98668.47;5110606;28;20020;-44
2023/10/29 01:42:22;;;;;;;0.00;0.00;;;;;;;12.70;100.00;98677.63;5091890;28;20055;-42
2023/10/29 01:44:48;;;;;;;0.00;0.00;;;;;;;12.74;100.00;98685.00;5110706;28;20059;-47
2023/10/29 01:47:13;;;;;;;0.00;0.00;;;;;;;12.76;100.00;98673.13;5110187;28;20101;-44
2023/10/29 01:49:39;;;;;;;0.00;0.00;;;;;;;12.78;100.00;98676.41;5110098;28;20426;-43
2023/10/29 01:52:04;;;;;;;0.00;0.00;;;;;;;12.74;100.00;98662.56;5120886;28;20030;-42
2023/10/29 01:54:30;;;;;;;0.00;0.00;;;;;;;12.78;100.00;98673.69;5117951;27;20027;-42
2023/10/29 01:56:55;;;;;;;0.00;0.00;;;;;;;12.75;100.00;98677.72;5110301;28;20061;-40
2023/10/29 01:59:20;;;;;;;0.00;0.00;;;;;;;12.78;100.00;98679.09;5109991;28;20073;-41
2023/10/29 02:01:46;;;;;;;0.00;0.00;;;;;;;12.80;100.00;98675.09;5110273;28;20035;-41
2023/10/29 02:04:11;;;;;;;0.00;0.00;;;;;;;12.80;100.00;98683.19;5110998;28;20044;-42
2023/10/29 02:06:39;;;;;;;0.00;0.00;;;;;;;12.68;100.00;98637.38;5118887;28;20504;-39
2023/10/29 02:09:09;;;;;;;0.00;0.00;;;;;;;12.60;100.00;98607.34;5120016;28;20076;-40
2023/10/29 02:11:37;;;;;;;0.00;0.00;;;;;;;12.47;100.00;98617.41;5120820;28;20077;-41
2023/10/29 02:14:03;;;;;;;0.00;0.00;;;;;;;12.34;100.00;98592.69;5117990;28;20371;-40
2023/10/29 02:16:29;;;;;;;0.00;0.00;;;;;;;12.19;100.00;98587.88;5114719;28;20023;-40
2023/10/29 02:18:54;;;;;;;0.00;0.00;;;;;;;12.06;100.00;98595.25;5114560;28;20027;-38
2023/10/29 02:21:23;;;;;;;0.00;0.00;;;;;;;11.93;100.00;98587.50;5116591;27;20085;-39
2023/10/29 02:23:49;;;;;;;0.00;0.00;;;;;;;11.83;100.00;98609.69;5114103;28;20042;-40
2023/10/29 02:26:14;;;;;;;0.00;0.00;;;;;;;11.70;100.00;98636.16;5114441;28;20024;-40
2023/10/29 02:28:40;;;;;;;0.00;0.00;;;;;;;11.67;100.00;98647.41;5114335;28;20414;-41
2023/10/29 02:31:05;;;;;;;0.00;0.00;;;;;;;11.62;100.00;98630.09;5113906;27;20482;-39
2023/10/29 02:33:31;;;;;;;0.00;0.00;;;;;;;11.59;100.00;98641.34;5113964;28;20034;-40
2023/10/29 02:35:56;;;;;;;0.00;0.00;;;;;;;11.57;100.00;98639.97;5114479;28;20032;-40
2023/10/29 02:38:23;;;;;;;0.00;0.00;;;;;;;11.54;100.00;98643.97;5113920;28;20024;-40
2023/10/29 02:40:48;;;;;;;0.00;0.00;;;;;;;11.52;100.00;98645.25;5113512;27;20027;-40
2023/10/29 02:43:13;;;;;;;0.00;0.00;;;;;;;11.46;100.00;98649.75;5096819;27;20035;-41
2023/10/29 02:45:40;;;;;;;0.00;0.00;;;;;;;11.47;100.00;98637.88;5113752;28;20016;-40
2023/10/29 02:48:05;;;;;;;0.00;0.00;;;;;;;11.50;100.00;98634.72;5113665;28;20043;-38
2023/10/29 02:50:30;;;;;;;0.00;0.00;;;;;;;11.51;100.00;98636.38;5113395;28;20024;-40
2023/10/29 02:52:56;;;;;;;0.00;0.00;;;;;;;11.50;100.00;98637.41;5112722;28;20024;-40
2023/10/29 02:55:22;;;;;;;0.00;0.00;;;;;;;11.53;100.00;98641.50;5113007;28;20031;-41
2023/10/29 02:57:47;;;;;;;0.00;0.00;;;;;;;11.53;100.00;98641.50;5113605;28;20454;-40
2023/10/29 03:00:13;;;;;;;0.00;0.00;;;;;;;11.54;100.00;98654.72;5112861;28;20119;-40
2023/10/29 03:02:38;;;;;;;0.00;0.00;;;;;;;11.55;100.00;98645.56;5112992;28;20075;-39
2023/10/29 03:05:04;;;;;;;0.00;0.00;;;;;;;11.64;100.00;98654.91;5112944;28;20063;-41
2023/10/29 03:07:30;;;;;;;0.00;0.00;;;;;;;11.65;100.00;98651.16;5113249;28;20063;-40
2023/10/29 03:09:56;;;;;;;0.00;0.00;;;;;;;11.69;100.00;98680.31;5112722;28;20485;-39
2023/10/29 03:12:21;;;;;;;0.00;0.00;;;;;;;11.79;100.00;98658.94;5113205;28;20028;-40
2023/10/29 03:14:47;;;;;;;0.00;0.00;;;;;;;11.84;100.00;98675.19;5112900;28;20243;-40
2023/10/29 03:17:12;;;;;;;0.00;0.00;;;;;;;11.94;100.00;98670.00;5113334;28;20019;-40
2023/10/29 03:19:37;;;;;;;0.00;0.00;;;;;;;12.07;100.00;98672.38;5119538;27;20031;-40
2023/10/29 03:22:04;;;;;;;0.00;0.00;;;;;;;12.18;100.00;98664.44;5117891;27;20028;-39
2023/10/29 03:24:29;;;;;;;0.00;0.00;;;;;;;12.18;100.00;98667.16;5113280;28;20063;-39
2023/10/29 03:26:55;;;;;;;0.00;0.00;;;;;;;12.16;100.00;98661.19;5111534;28;20055;-39
2023/10/29 03:29:20;;;;;;;0.00;0.00;;;;;;;12.12;100.00;98685.13;5121702;27;20389;-38
2023/10/29 03:31:45;;;;;;;0.00;0.00;;;;;;;12.19;100.00;98672.31;5112503;28;20130;-40
2023/10/29 03:34:12;;;;;;;0.00;0.00;;;;;;;12.24;100.00;98674.25;5112480;28;20080;-39
2023/10/29 03:36:38;;;;;;;0.00;0.00;;;;;;;12.29;100.00;98668.94;5112243;28;20402;-38
2023/10/29 03:39:03;;;;;;;0.00;0.00;;;;;;;12.30;100.00;98657.91;5112942;27;20031;-40
2023/10/29 03:41:28;;;;;;;0.00;0.00;;;;;;;12.32;100.00;98667.63;5110918;28;20114;-41
2023/10/29 03:43:54;;;;;;;0.00;0.00;;;;;;;12.34;100.00;98663.63;5117489;28;20023;-41
2023/10/29 03:46:19;;;;;;;0.00;0.00;;;;;;;12.32;100.00;98665.75;5116382;28;20030;-41
2023/10/29 03:48:45;;;;;;;0.00;0.00;;;;;;;12.33;100.00;98658.50;5114999;27;20114;-41
2023/10/29 03:51:14;;;;;;;0.00;0.00;;;;;;;12.23;100.00;98669.94;5116359;27;20039;-41
2023/10/29 03:53:40;;;;;;;0.00;0.00;;;;;;;12.00;100.00;98717.53;5111901;27;20027;-39
2023/10/29 03:56:06;;;;;;;0.00;0.00;;;;;;;11.71;100.00;98767.09;5110557;28;20114;-39
2023/10/29 03:58:32;;;;;;;0.00;0.00;;;;;;;11.54;100.00;98767.06;5092657;28;20070;-38
2023/10/29 04:00:58;;;;;;;0.00;0.00;;;;;;;11.28;100.00;98780.00;5110282;28;20051;-41
2023/10/29 04:03:23;;;;;;;0.00;0.00;;;;;;;11.06;100.00;98790.56;5109644;28;20105;-40
2023/10/29 04:05:48;;;;;;;0.00;0.00;;;;;;;10.91;100.00;98782.16;5110431;28;20026;-39
2023/10/29 04:08:14;;;;;;;0.00;0.00;;;;;;;10.66;100.00;98783.19;5107988;28;20026;-40
2023/10/29 04:10:39;;;;;;;0.00;0.00;;;;;;;10.40;100.00;98778.22;5109879;28;20179;-40
2023/10/29 04:13:05;;;;;;;0.00;0.00;;;;;;;10.18;100.00;98784.13;5110295;28;20031;-41
2023/10/29 04:15:30;;;;;;;0.00;0.00;;;;;;;9.98;100.00;98764.78;5110278;28;20020;-39
2023/10/29 04:17:55;;;;;;;0.00;0.00;;;;;;;9.88;100.00;98776.91;5110670;28;20023;-39
2023/10/29 04:20:21;;;;;;;0.00;0.00;;;;;;;9.84;100.00;98785.66;5109626;28;20028;-41
2023/10/29 04:22:46;;;;;;;0.00;0.00;;;;;;;9.83;100.00;98779.47;5109576;28;20027;-36
2023/10/29 04:25:12;;;;;;;0.00;0.00;;;;;;;9.84;100.00;98770.34;5110202;28;20023;-38
2023/10/29 04:27:37;;;;;;;0.00;0.00;;;;;;;10.02;100.00;98787.47;5125768;27;20078;-42
2023/10/29 04:30:02;;;;;;;0.00;0.00;;;;;;;10.17;100.00;98792.44;5128928;27;20058;-45
2023/10/29 04:32:28;;;;;;;0.00;0.00;;;;;;;10.25;100.00;98778.66;5122854;27;20039;-42
2023/10/29 04:34:53;;;;;;;0.00;0.00;;;;;;;10.40;100.00;98794.38;5090922;28;20145;-44
2023/10/29 04:37:18;;;;;;;0.00;0.00;;;;;;;10.52;100.00;98800.59;5119324;27;20031;-40
2023/10/29 04:39:46;;;;;;;0.00;0.00;;;;;;;10.54;100.00;98798.50;5130086;27;20050;-40
2023/10/29 04:42:11;;;;;;;0.00;0.00;;;;;;;10.61;100.00;98806.44;5122310;27;20099;-41
2023/10/29 04:44:36;;;;;;;0.00;0.00;;;;;;;10.68;100.00;98805.28;5093251;28;20128;-39
2023/10/29 04:47:03;;;;;;;0.00;0.00;;;;;;;10.71;100.00;98807.50;5108661;28;20031;-40
2023/10/29 04:49:29;;;;;;;0.00;0.00;;;;;;;10.76;100.00;98807.63;5108822;28;20039;-40
2023/10/29 04:51:54;;;;;;;0.00;0.00;;;;;;;10.84;100.00;98805.66;5091796;27;20031;-39
2023/10/29 04:54:20;;;;;;;0.00;0.00;;;;;;;10.89;100.00;98787.75;5114320;27;20080;-41
2023/10/29 04:56:45;;;;;;;0.00;0.00;;;;;;;10.95;100.00;98815.59;5109223;28;20063;-40
2023/10/29 04:59:11;;;;;;;0.00;0.00;;;;;;;11.00;100.00;98802.25;5090811;28;20031;-40
2023/10/29 05:01:36;;;;;;;0.00;0.00;;;;;;;11.05;100.00;98775.47;5108833;28;20123;-37
2023/10/29 05:04:01;;;;;;;0.00;0.00;;;;;;;11.08;100.00;98766.91;5109161;28;20047;-40
2023/10/29 05:06:27;;;;;;;0.00;0.00;;;;;;;11.13;100.00;98767.00;5093329;28;20381;-40
2023/10/29 05:08:52;;;;;;;0.00;0.00;;;;;;;11.16;100.00;98750.41;5093812;28;20032;-40
2023/10/29 05:11:17;;;;;;;0.00;0.00;;;;;;;11.23;100.00;98757.53;5114554;27;20036;-41
2023/10/29 05:13:43;;;;;;;0.00;0.00;;;;;;;11.24;100.00;98740.31;5113815;28;20032;-41
2023/10/29 05:16:08;;;;;;;0.00;0.00;;;;;;;11.25;100.00;98747.34;5114689;28;20066;-40
2023/10/29 05:18:34;;;;;;;0.00;0.00;;;;;;;11.24;100.00;98740.31;5095456;28;20058;-40
2023/10/29 05:20:59;;;;;;;0.00;0.00;;;;;;;11.16;100.00;98763.03;5105171;28;20464;-40
2023/10/29 05:23:25;;;;;;;0.00;0.00;;;;;;;11.12;100.00;98775.34;5106174;28;20040;-41
2023/10/29 05:25:50;;;;;;;0.00;0.00;;;;;;;11.12;100.00;98780.72;5113867;28;20024;-41
2023/10/29 05:28:16;;;;;;;0.00;0.00;;;;;;;11.11;100.00;98788.00;5113073;28;20416;-41
2023/10/29 05:30:42;;;;;;;0.00;0.00;;;;;;;11.09;100.00;98802.75;5122101;28;20110;-39
2023/10/29 05:33:07;;;;;;;0.00;0.00;;;;;;;11.03;100.00;98809.84;5116265;28;20180;-39
2023/10/29 05:35:33;;;;;;;0.00;0.00;;;;;;;11.00;100.00;98813.03;5123450;28;20392;-40
2023/10/29 05:37:58;;;;;;;0.00;0.00;;;;;;;11.01;100.00;98827.31;5124988;27;20038;-41
2023/10/29 05:40:24;;;;;;;0.00;0.00;;;;;;;11.03;100.00;98825.19;5109416;28;20110;-40
2023/10/29 05:42:49;;;;;;;0.00;0.00;;;;;;;11.04;100.00;98830.34;5123292;27;20030;-40
2023/10/29 05:45:15;;;;;;;0.00;0.00;;;;;;;11.05;100.00;98823.09;5114263;28;20019;-40
2023/10/29 05:47:40;;;;;;;0.00;0.00;;;;;;;11.06;100.00;98830.94;5117121;28;20087;-39
2023/10/29 05:50:06;;;;;;;0.00;0.00;;;;;;;11.04;100.00;98827.66;5117770;28;20050;-42
2023/10/29 05:52:32;;;;;;;0.00;0.00;;;;;;;11.01;100.00;98838.91;5128610;27;20088;-41
2023/10/29 05:55:00;;;;;;;0.00;0.00;;;;;;;10.99;100.00;98824.84;5099238;28;20091;-40
2023/10/29 05:57:25;;;;;;;0.00;0.00;;;;;;;10.99;100.00;98836.44;5111018;27;20032;-40
2023/10/29 05:59:51;;;;;;;0.00;0.00;;;;;;;10.93;100.00;98832.00;5114173;27;20020;-41
2023/10/29 06:02:16;;;;;;;0.00;0.00;;;;;;;10.97;100.00;98826.97;5089881;27;20104;-40
2023/10/29 06:04:41;;;;;;;0.00;0.00;;;;;;;10.96;100.00;98836.91;5112181;27;20059;-40
2023/10/29 06:07:08;;;;;;;0.00;0.00;;;;;;;10.95;100.00;98842.50;5111735;28;20256;-42
2023/10/29 06:09:33;;;;;;;0.00;0.00;;;;;;;10.92;100.00;98851.06;5114057;27;20071;-42
2023/10/29 06:11:59;;;;;;;0.00;0.00;;;;;;;10.90;100.00;98828.94;5106966;27;20027;-42
2023/10/29 06:14:24;;;;;;;0.00;0.00;;;;;;;10.87;100.00;98830.22;5105797;28;20026;-40
2023/10/29 06:16:56;;;;;;;0.00;0.00;;;;;;;10.86;100.00;98836.66;5110275;27;20034;-40
2023/10/29 06:19:24;;;;;;;0.00;0.00;;;;;;;10.84;100.00;98836.06;5113732;27;20036;-41
2023/10/29 06:21:50;;;;;;;0.00;0.00;;;;;;;10.82;100.00;98845.44;5114100;27;20651;-41
2023/10/29 06:24:15;;;;;;;0.00;0.00;;;;;;;10.79;100.00;98851.28;5112135;27;20072;-40
2023/10/29 06:26:40;;;;;;;0.00;0.00;;;;;;;10.77;100.00;98855.03;5112947;27;20055;-42
2023/10/29 06:29:09;;;;;;;0.00;0.00;;;;;;;10.75;100.00;98862.50;5092766;27;20020;-41
2023/10/29 06:31:35;;;;;;;0.00;0.00;;;;;;;10.69;100.00;98871.53;5110887;27;20039;-41
2023/10/29 06:34:01;;;;;;;0.00;0.00;;;;;;;10.72;100.00;98887.19;5116810;27;20023;-42
2023/10/29 06:36:27;;;;;;;0.00;0.00;;;;;;;10.76;100.00;98892.91;5114608;27;20066;-40
2023/10/29 06:38:53;;;;;;;0.00;0.00;;;;;;;10.77;100.00;98908.84;5106964;28;20444;-41
2023/10/29 06:41:18;;;;;;;0.00;0.00;;;;;;;10.79;100.00;98915.84;5115968;27;20122;-41
2023/10/29 06:43:44;;;;;;;0.00;0.00;;;;;;;10.77;100.00;98913.41;5115606;28;20016;-41
2023/10/29 06:46:09;;;;;;;0.00;0.00;;;;;;;10.77;100.00;98922.31;5123975;27;20461;-42
2023/10/29 06:48:41;;;;;;;0.00;0.00;;;;;;;10.80;100.00;98928.28;5117507;27;20448;-40
2023/10/29 06:51:06;;;;;;;0.00;0.00;;;;;;;10.82;100.00;98958.44;5129817;27;20042;-42
2023/10/29 06:53:32;;;;;;;0.00;0.00;;;;;;;10.84;100.00;98946.41;5127350;27;20016;-42
2023/10/29 06:56:02;;;;;;;0.00;0.00;;;;;;;10.90;100.00;98974.25;5113147;28;20047;-41
2023/10/29 06:58:27;;;;;;;0.00;0.00;;;;;;;10.96;100.00;98951.84;5112893;28;20370;-41
2023/10/29 07:00:53;;;;;;;0.00;0.00;;;;;;;11.01;100.00;98954.66;5112632;27;20033;-41
2023/10/29 07:03:18;;;;;;;0.00;0.00;;;;;;;11.01;100.00;98951.16;5113873;27;20052;-40
2023/10/29 07:05:44;;;;;;;0.00;0.00;;;;;;;11.07;100.00;98977.94;5131390;27;20027;-40
2023/10/29 07:08:09;;;;;;;0.00;0.00;;;;;;;11.12;100.00;98961.09;5124585;27;20027;-40
2023/10/29 07:10:35;;;;;;;0.00;0.00;;;;;;;11.18;100.00;98968.25;5112763;27;20028;-39
2023/10/29 07:13:00;;;;;;;0.00;0.00;;;;;;;11.16;100.00;98975.72;5112901;28;20045;-41
2023/10/29 07:15:26;;;;;;;0.00;0.00;;;;;;;11.15;100.00;98988.38;5113281;28;20043;-41
2023/10/29 07:17:51;;;;;;;0.00;0.00;;;;;;;11.16;100.00;98998.13;5113343;27;20039;-39
2023/10/29 07:20:16;;;;;;;0.00;0.00;;;;;;;11.16;100.00;98992.72;5093065;28;20470;-40
2023/10/29 07:22:43;;;;;;;0.00;0.00;;;;;;;11.18;100.00;99012.16;5110007;27;20035;-40
2023/10/29 07:25:08;;;;;;;0.00;0.00;;;;;;;11.23;100.00;99013.34;5121568;27;20027;-39
2023/10/29 07:27:33;;;;;;;0.00;0.00;;;;;;;11.22;100.00;99007.13;5122633;27;20734;-41
2023/10/29 07:29:59;;;;;;;0.00;0.00;;;;;;;11.23;100.00;99003.38;5119915;27;20031;-41
2023/10/29 07:32:24;;;;;;;0.00;0.00;;;;;;;11.21;100.00;98998.22;5112947;28;20327;-43
2023/10/29 07:34:49;;;;;;;0.00;0.00;;;;;;;11.17;100.00;99010.50;5107776;28;20028;-39
2023/10/29 07:37:15;;;;;;;0.00;0.00;;;;;;;11.14;100.00;99008.28;5111209;28;20031;-39
2023/10/29 07:39:40;;;;;;;0.00;0.00;;;;;;;11.13;100.00;99024.66;5111084;28;20024;-40
2023/10/29 07:42:06;;;;;;;0.00;0.00;;;;;;;11.10;100.00;99009.78;5110508;27;20489;-41
2023/10/29 07:44:31;;;;;;;0.00;0.00;;;;;;;11.12;100.00;99005.00;5109715;27;20091;-40
2023/10/29 07:46:58;;;;;;;0.00;0.00;;;;;;;11.47;100.00;99001.53;5120573;27;20033;-40
2023/10/29 07:49:24;;;;;;;0.00;0.00;;;;;;;12.05;100.00;99022.31;5114566;27;20046;-41
2023/10/29 07:51:49;;;;;;;0.00;0.00;;;;;;;12.40;100.00;98996.31;5110798;27;20035;-40
2023/10/29 07:54:16;;;;;;;0.00;0.00;;;;;;;12.76;100.00;98992.44;5110518;28;20027;-41
2023/10/29 07:56:41;;;;;;;0.00;0.00;;;;;;;13.12;100.00;98996.59;5111251;28;20027;-40
2023/10/29 07:59:07;;;;;;;0.00;0.00;;;;;;;13.26;100.00;99009.81;5115672;27;20034;-41
2023/10/29 08:01:33;;;;;;;0.00;0.00;;;;;;;13.22;100.00;99003.25;5122111;27;20091;-41
2023/10/29 08:03:58;;;;;;;0.00;0.00;;;;;;;13.38;100.00;99022.22;5096794;28;20131;-40
2023/10/29 08:06:24;;;;;;;0.00;0.00;;;;;;;13.27;100.00;99033.91;5095921;28;20592;-41
2023/10/29 08:08:50;;;;;;;0.00;0.00;;;;;;;13.12;100.00;99023.63;5095639;28;20555;-41
2023/10/29 08:11:21;;;;;;;0.00;0.00;;;;;;;13.29;100.00;99031.75;5094121;28;20069;-41
2023/10/29 08:13:48;;;;;;;0.00;0.00;;;;;;;13.28;100.00;99050.94;5103337;28;20019;-40
2023/10/29 08:16:13;;;;;;;0.00;0.00;;;;;;;13.65;100.00;99029.66;5113687;27;20042;-40
2023/10/29 08:18:39;;;;;;;0.00;0.00;;;;;;;13.52;100.00;99035.41;5112080;28;20035;-40
2023/10/29 08:21:05;;;;;;;0.00;0.00;;;;;;;13.16;100.00;99035.59;5119500;27;20536;-40
2023/10/29 08:23:30;;;;;;;0.00;0.00;;;;;;;13.34;100.00;99061.56;5134545;27;20031;-40
2023/10/29 08:25:56;;;;;;;0.00;0.00;;;;;;;13.55;100.00;99067.34;5134559;27;20033;-41
2023/10/29 08:28:22;;;;;;;0.00;0.00;;;;;;;13.48;100.00;99029.69;5119178;27;20110;-41
2023/10/29 08:30:47;;;;;;;0.00;0.00;;;;;;;13.11;100.00;99045.47;5108542;28;20077;-39
2023/10/29 08:33:13;;;;;;;0.00;0.00;;;;;;;13.22;100.00;99041.91;5110510;28;20028;-40
2023/10/29 08:35:43;;;;;;;0.00;0.00;;;;;;;12.92;100.00;99048.34;5092003;28;20026;-42
2023/10/29 08:38:08;;;;;;;0.00;0.00;;;;;;;12.73;100.00;99060.41;5110709;28;20031;-40
2023/10/29 08:40:34;;;;;;;0.00;0.00;;;;;;;12.52;100.00;99070.78;5111114;28;20476;-41
2023/10/29 08:42:59;;;;;;;0.00;0.00;;;;;;;12.62;100.00;99064.78;5110004;28;20477;-39
2023/10/29 08:45:24;;;;;;;0.00;0.00;;;;;;;12.57;100.00;99082.75;5112081;28;20453;-41
2023/10/29 08:47:50;;;;;;;0.00;0.00;;;;;;;12.13;100.00;99077.75;5111531;28;20035;-42
2023/10/29 08:50:15;;;;;;;0.00;0.00;;;;;;;12.20;100.00;99088.44;5111345;28;20034;-39
2023/10/29 08:52:40;;;;;;;0.00;0.00;;;;;;;12.04;100.00;99096.19;5109899;28;20031;-41
2023/10/29 08:55:06;;;;;;;0.00;0.00;;;;;;;12.03;100.00;99113.41;5110815;28;20123;-40
2023/10/29 08:57:34;;;;;;;0.00;0.00;;;;;;;12.04;100.00;99109.66;5113786;28;20023;-40
2023/10/29 08:59:59;;;;;;;0.00;0.00;;;;;;;12.05;100.00;99118.56;5115495;28;20043;-42
2023/10/29 09:02:25;;;;;;;0.00;0.00;;;;;;;12.01;100.00;99128.19;5115237;28;20405;-41
2023/10/29 09:04:56;;;;;;;0.00;0.00;;;;;;;11.97;100.00;99117.03;5115951;28;20020;-41
2023/10/29 09:07:22;;;;;;;0.00;0.00;;;;;;;11.97;100.00;99138.59;5115595;28;20140;-40
2023/10/29 09:09:48;;;;;;;0.00;0.00;;;;;;;11.93;100.00;99121.25;5115035;28;20039;-41
2023/10/29 09:12:13;;;;;;;0.00;0.00;;;;;;;11.94;100.00;99133.69;5114528;28;20031;-41
2023/10/29 09:14:39;;;;;;;0.00;0.00;;;;;;;12.03;100.00;99148.47;5114832;28;20019;-40
2023/10/29 09:17:04;;;;;;;0.00;0.00;;;;;;;12.04;100.00;99142.00;5093184;28;20477;-41
2023/10/29 09:19:30;;;;;;;0.00;0.00;;;;;;;12.03;100.00;99126.91;5109505;28;20438;-41
2023/10/29 09:21:55;;;;;;;0.00;0.00;;;;;;;12.02;100.00;99135.22;5109157;28;20185;-40
2023/10/29 09:24:21;;;;;;;0.00;0.00;;;;;;;12.09;100.00;99114.34;5109428;28;20066;-40
2023/10/29 09:26:46;;;;;;;0.00;0.00;;;;;;;12.16;100.00;99133.91;5111749;28;20118;-40
2023/10/29 09:29:11;;;;;;;0.00;0.00;;;;;;;12.11;100.00;99138.38;5109179;28;20425;-39
2023/10/29 09:31:37;;;;;;;0.00;0.00;;;;;;;12.13;100.00;99136.28;5107082;28;20465;-42
2023/10/29 09:34:03;;;;;;;0.00;0.00;;;;;;;12.14;100.00;99146.00;5109173;28;20058;-39
2023/10/29 09:36:29;;;;;;;0.00;0.00;;;;;;;12.11;100.00;99143.75;5109254;28;20118;-40
2023/10/29 09:38:54;;;;;;;0.00;0.00;;;;;;;12.04;100.00;99133.91;5106726;28;20205;-42
2023/10/29 09:41:19;;;;;;;0.00;0.00;;;;;;;12.14;100.00;99151.38;5108264;28;20024;-41
2023/10/29 09:43:46;;;;;;;0.00;0.00;;;;;;;12.23;100.00;99148.13;5091776;28;20046;-40
2023/10/29 09:46:12;;;;;;;0.00;0.00;;;;;;;12.24;100.00;99130.03;5108227;28;20034;-41
2023/10/29 09:48:38;;;;;;;0.00;0.00;;;;;;;12.22;100.00;99145.66;5108747;28;20401;-40
2023/10/29 09:51:06;;;;;;;0.00;0.00;;;;;;;12.14;100.00;99156.78;5109353;28;20406;-41
2023/10/29 09:53:35;;;;;;;0.00;0.00;;;;;;;12.17;100.00;99143.66;5108578;28;20047;-41
2023/10/29 09:56:01;;;;;;;0.00;0.00;;;;;;;12.12;100.00;99159.72;5105990;28;20035;-42
2023/10/29 09:58:27;;;;;;;0.00;0.00;;;;;;;12.19;100.00;99135.31;5095156;28;20028;-42
2023/10/29 10:00:53;;;;;;;0.00;0.00;;;;;;;12.24;100.00;99121.97;5113713;28;20035;-41
2023/10/29 10:03:18;;;;;;;0.00;0.00;;;;;;;12.40;100.00;99105.09;5087603;28;20054;-41
2023/10/29 10:05:45;;;;;;;0.00;0.00;;;;;;;12.36;100.00;99114.69;5071108;28;20450;-40
2023/10/29 10:08:10;;;;;;;0.00;0.00;;;;;;;12.37;100.00;99116.31;5071971;28;20390;-44
2023/10/29 10:10:40;;;;;;;0.00;0.00;;;;;;;12.62;100.00;99110.66;5071002;28;20028;-40
2023/10/29 10:13:06;;;;;;;0.00;0.00;;;;;;;12.79;100.00;99101.81;5059323;28;20032;-41
2023/10/29 10:15:32;;;;;;;0.00;0.00;;;;;;;12.89;100.00;99094.75;5059510;28;20039;-41
2023/10/29 10:18:00;;;;;;;0.00;0.00;;;;;;;13.01;100.00;99121.72;5067331;28;20032;-40
2023/10/29 10:20:26;;;;;;;0.00;0.00;;;;;;;13.11;100.00;99123.78;5100743;28;20127;-41
2023/10/29 10:22:55;;;;;;;0.00;0.00;;;;;;;13.14;100.00;99104.41;5067780;28;20543;-41
2023/10/29 10:25:23;;;;;;;0.00;0.00;;;;;;;13.27;100.00;99114.13;5069434;28;20032;-41
2023/10/29 10:27:50;;;;;;;0.00;0.00;;;;;;;13.09;100.00;99134.84;5098913;28;20395;-40
2023/10/29 10:30:34;;;;;;;0.00;0.00;;;;;;;13.00;100.00;99141.66;5069811;28;20044;-41
2023/10/29 10:33:21;;;;;;;0.00;0.00;;;;;;;12.92;100.00;99156.38;5071171;28;20060;-40
2023/10/29 10:35:50;;;;;;;0.00;0.00;;;;;;;13.15;100.00;99177.09;5070026;28;20040;-41
2023/10/29 10:38:18;;;;;;;0.00;0.00;;;;;;;13.17;100.00;99184.97;5071011;28;20090;-40
2023/10/29 10:40:46;;;;;;;0.00;0.00;;;;;;;13.10;100.00;99184.28;5065720;28;20029;-40
2023/10/29 10:43:18;;;;;;;0.00;0.00;;;;;;;13.21;100.00;99171.78;5072621;28;20033;-41
2023/10/29 10:45:44;;;;;;;0.00;0.00;;;;;;;13.24;100.00;99166.72;5071793;28;20107;-41
2023/10/29 10:48:09;;;;;;;0.00;0.00;;;;;;;13.52;100.00;99186.75;5069431;28;20566;-41
2023/10/29 10:50:35;;;;;;;0.00;0.00;;;;;;;13.54;100.00;99200.84;5071083;28;20036;-42
2023/10/29 10:53:00;;;;;;;0.00;0.00;;;;;;;13.57;100.00;99184.97;5070995;28;20028;-39
2023/10/29 10:55:27;;;;;;;0.00;0.00;;;;;;;13.57;100.00;99189.56;5070898;28;20090;-39
2023/10/29 10:57:53;;;;;;;0.00;0.00;;;;;;;13.28;100.00;99184.13;5070266;28;20023;-42
2023/10/29 11:00:19;;;;;;;0.00;0.00;;;;;;;13.08;100.00;99186.38;5069440;28;20029;-41
2023/10/29 11:02:46;;;;;;;0.00;0.00;;;;;;;12.86;100.00;99172.72;5083834;28;20044;-40
2023/10/29 11:05:12;;;;;;;0.00;0.00;;;;;;;12.84;100.00;99169.44;5098752;28;20036;-40
2023/10/29 11:07:39;;;;;;;0.00;0.00;;;;;;;12.84;100.00;99169.44;5110371;28;20032;-40
2023/10/29 11:10:08;;;;;;;0.00;0.00;;;;;;;12.81;100.00;99176.13;5091429;28;20110;-40
2023/10/29 11:12:36;;;;;;;0.00;0.00;;;;;;;12.83;100.00;99174.00;5101778;28;20435;-41
2023/10/29 11:15:21;;;;;;;0.00;0.00;;;;;;;12.74;100.00;99162.75;5114387;28;20031;-40
2023/10/29 11:18:00;;;;;;;0.00;0.00;;;;;;;12.83;100.00;99162.41;5112286;28;20386;-40